Time;durP1;ratioP1;P1;durP2;ratioP2;P2;SDS_P1;SDS_P2;PMS_P1;PMS_P2;Temp;Humidity;BMP_temperature;BMP_pressure;BME280_temperature;BME280_humidity;BME280_pressure;Samples;Min_cycle;Max_cycle;Signal;HPM_P1;HPM_P2
2022/12/27 00:00:26;;;;;;;;;;;;;;;;;;7365630;19;1282;-72
2022/12/27 00:02:54;;;;;;;;;;;;;;;;;;7367619;19;803;-71
2022/12/27 00:05:22;;;;;;;;;;;;;;;;;;7367454;19;839;-71
2022/12/27 00:07:51;;;;;;;;;;;;;;;;;;7365101;19;1846;-71
2022/12/27 00:10:19;;;;;;;;;;;;;;;;;;7369947;19;1871;-70
2022/12/27 00:12:47;;;;;;;;;;;;;;;;;;7368045;19;815;-71
2022/12/27 00:15:15;;;;;;;;;;;;;;;;;;7368149;19;762;-71
2022/12/27 00:17:43;;;;;;;;;;;;;;;;;;7366281;19;861;-71
2022/12/27 00:20:11;;;;;;;;;;;;;;;;;;7365449;19;1287;-70
2022/12/27 00:22:39;;;;;;;;;;;;;;;;;;7368361;19;1860;-71
2022/12/27 00:25:08;;;;;;;;;;;;;;;;;;7368307;19;806;-71
2022/12/27 00:27:36;;;;;;;;;;;;;;;;;;7366403;19;1841;-70
2022/12/27 00:30:04;;;;;;;;;;;;;;;;;;7365193;19;1277;-70
2022/12/27 00:32:32;;;;;;;;;;;;;;;;;;7366666;19;885;-70
2022/12/27 00:35:01;;;;;;;;;;;;;;;;;;7366727;19;805;-70
2022/12/27 00:37:29;;;;;;;;;;;;;;;;;;7366133;19;860;-70
2022/12/27 00:39:57;;;;;;;;;;;;;;;;;;7365639;19;1636;-70
2022/12/27 00:42:25;;;;;;;;;;;;;;;;;;7366814;19;847;-71
2022/12/27 00:44:53;;;;;;;;;;;;;;;;;;7366201;19;826;-71
2022/12/27 00:47:21;;;;;;;;;;;;;;;;;;7365184;19;1861;-71
2022/12/27 00:49:49;;;;;;;;;;;;;;;;;;7364367;19;1286;-72
2022/12/27 00:52:18;;;;;;;;;;;;;;;;;;7367039;19;827;-73
2022/12/27 00:54:46;;;;;;;;;;;;;;;;;;7364793;19;842;-73
2022/12/27 00:57:14;;;;;;;;;;;;;;;;;;7366458;19;812;-72
2022/12/27 00:59:42;;;;;;;;;;;;;;;;;;7363110;19;1208;-72
2022/12/27 01:02:10;;;;;;;;;;;;;;;;;;7366085;19;790;-70
2022/12/27 01:04:38;;;;;;;;;;;;;;;;;;7365735;19;970;-70
2022/12/27 01:07:06;;;;;;;;;;;;;;;;;;7365792;19;852;-70
2022/12/27 01:09:35;;;;;;;;;;;;;;;;;;7364860;19;1858;-70
2022/12/27 01:12:03;;;;;;;;;;;;;;;;;;7365445;19;798;-70
2022/12/27 01:14:31;;;;;;;;;;;;;;;;;;7368228;19;1837;-70
2022/12/27 01:16:59;;;;;;;;;;;;;;;;;;7363630;19;866;-71
2022/12/27 01:19:27;;;;;;;;;;;;;;;;;;7363217;19;1298;-70
2022/12/27 01:21:55;;;;;;;;;;;;;;;;;;7364937;19;818;-70
2022/12/27 01:24:24;;;;;;;;;;;;;;;;;;7364418;19;849;-70
2022/12/27 01:26:52;;;;;;;;;;;;;;;;;;7363366;19;851;-70
2022/12/27 01:29:20;;;;;;;;;;;;;;;;;;7361698;19;1838;-70
2022/12/27 01:31:48;;;;;;;;;;;;;;;;;;7363688;19;812;-70
2022/12/27 01:34:17;;;;;;;;;;;;;;;;;;7363844;19;989;-72
2022/12/27 01:36:45;;;;;;;;;;;;;;;;;;7363898;19;870;-71
2022/12/27 01:39:13;;;;;;;;;;;;;;;;;;7363853;19;1862;-71
2022/12/27 01:44:22;;;;;;;;;;;;;;;;;;7364745;19;861;-71
2022/12/27 01:46:50;;;;;;;;;;;;;;;;;;7363860;19;808;-71
2022/12/27 01:49:18;;;;;;;;;;;;;;;;;;7361128;19;1853;-71
2022/12/27 01:51:46;;;;;;;;;;;;;;;;;;7368332;19;1040;-71
2022/12/27 01:54:14;;;;;;;;;;;;;;;;;;7370950;19;814;-71
2022/12/27 01:56:42;;;;;;;;;;;;;;;;;;7371067;19;799;-71
2022/12/27 01:59:11;;;;;;;;;;;;;;;;;;7369846;19;1290;-70
2022/12/27 02:01:39;;;;;;;;;;;;;;;;;;7371305;19;849;-70
2022/12/27 02:04:07;;;;;;;;;;;;;;;;;;7371588;19;1802;-71
2022/12/27 02:06:35;;;;;;;;;;;;;;;;;;7371015;19;831;-70
2022/12/27 02:09:03;;;;;;;;;;;;;;;;;;7368201;19;1910;-70
2022/12/27 02:14:12;;;;;;;;;;;;;;;;;;7369897;19;861;-71
2022/12/27 02:16:40;;;;;;;;;;;;;;;;;;7369031;19;753;-71
2022/12/27 02:19:08;;;;;;;;;;;;;;;;;;7369194;19;1337;-72
2022/12/27 02:21:36;;;;;;;;;;;;;;;;;;7372921;19;1846;-70
2022/12/27 02:24:02;;;;;;;;;;;;;;;;;;7370046;19;826;-69
2022/12/27 02:26:30;;;;;;;;;;;;;;;;;;7369738;19;782;-69
2022/12/27 02:28:58;;;;;;;;;;;;;;;;;;7367143;19;1828;-69
2022/12/27 02:31:26;;;;;;;;;;;;;;;;;;7369735;19;828;-69
2022/12/27 02:33:55;;;;;;;;;;;;;;;;;;7369853;19;762;-71
2022/12/27 02:36:23;;;;;;;;;;;;;;;;;;7369696;19;899;-72
2022/12/27 02:38:51;;;;;;;;;;;;;;;;;;7367650;19;1899;-71
2022/12/27 02:55:00;;;;;;;;;;;;;;;;;;7367662;19;820;-70
2022/12/27 02:57:25;;;;;;;;;;;;;;;;;;7368465;19;865;-70
2022/12/27 03:05:14;;;;;;;;;;;;;;;;;;7368448;19;1037;-70
2022/12/27 03:07:43;;;;;;;;;;;;;;;;;;7366400;19;842;-69
2022/12/27 03:18:13;;;;;;;;;;;;;;;;;;7367946;19;833;-69
2022/12/27 03:26:09;;;;;;;;;;;;;;;;;;7368889;19;837;-67
2022/12/27 03:34:03;;;;;;;;;;;;;;;;;;7368631;19;747;-68
2022/12/27 03:39:12;;;;;;;;;;;;;;;;;;7367014;19;1661;-67
2022/12/27 03:44:27;;;;;;;;;;;;;;;;;;7368464;19;732;-67
2022/12/27 03:46:52;;;;;;;;;;;;;;;;;;7368124;19;817;-66
2022/12/27 03:49:21;;;;;;;;;;;;;;;;;;7365043;19;1858;-67
2022/12/27 03:51:49;;;;;;;;;;;;;;;;;;7367698;19;764;-67
2022/12/27 03:54:17;;;;;;;;;;;;;;;;;;7367263;19;820;-67
2022/12/27 03:56:45;;;;;;;;;;;;;;;;;;7367905;19;822;-67
2022/12/27 03:59:13;;;;;;;;;;;;;;;;;;7364636;19;1381;-67
2022/12/27 04:01:41;;;;;;;;;;;;;;;;;;7367556;19;2113;-68
2022/12/27 04:04:09;;;;;;;;;;;;;;;;;;7372809;19;1522;-68
2022/12/27 04:06:38;;;;;;;;;;;;;;;;;;7367897;19;766;-68
2022/12/27 04:35:52;;;;;;;;;;;;;;;;;;7367025;19;1192;-70
2022/12/27 04:38:20;;;;;;;;;;;;;;;;;;7368270;19;1321;-68
2022/12/27 04:56:52;;;;;;;;;;;;;;;;;;7369359;19;1059;-70
2022/12/27 05:02:07;;;;;;;;;;;;;;;;;;7367237;19;773;-69
2022/12/27 05:04:35;;;;;;;;;;;;;;;;;;7365434;19;862;-70
2022/12/27 05:13:58;;;;;;;;;;;;;;;;;;7365881;19;861;-70
2022/12/27 05:15:13;;;;;;;;;;;;;;;;;;7364438;19;977;-69
2022/12/27 05:17:41;;;;;;;;;;;;;;;;;;7368850;19;1822;-71
2022/12/27 05:20:09;;;;;;;;;;;;;;;;;;7364333;19;1282;-70
2022/12/27 05:28:00;;;;;;;;;;;;;;;;;;7371267;19;846;-71
2022/12/27 05:30:28;;;;;;;;;;;;;;;;;;7369249;19;1844;-69
2022/12/27 05:32:56;;;;;;;;;;;;;;;;;;7371378;19;874;-69
2022/12/27 05:35:24;;;;;;;;;;;;;;;;;;7371367;19;858;-70
2022/12/27 05:37:52;;;;;;;;;;;;;;;;;;7371132;19;881;-69
2022/12/27 05:40:20;;;;;;;;;;;;;;;;;;7372949;19;1839;-69
2022/12/27 05:42:49;;;;;;;;;;;;;;;;;;7371023;19;744;-69
2022/12/27 05:45:17;;;;;;;;;;;;;;;;;;7370112;19;865;-69
2022/12/27 05:47:45;;;;;;;;;;;;;;;;;;7374398;19;1866;-68
2022/12/27 05:50:13;;;;;;;;;;;;;;;;;;7371538;19;1849;-69
2022/12/27 05:52:41;;;;;;;;;;;;;;;;;;7369982;19;815;-69
2022/12/27 05:55:09;;;;;;;;;;;;;;;;;;7368876;19;800;-70
2022/12/27 05:57:38;;;;;;;;;;;;;;;;;;7370316;19;753;-69
2022/12/27 06:00:06;;;;;;;;;;;;;;;;;;7369320;19;1277;-70
2022/12/27 06:02:40;;;;;;;;;;;;;;;;;;7370994;19;730;-71
2022/12/27 06:05:09;;;;;;;;;;;;;;;;;;7371868;19;977;-70
2022/12/27 06:07:37;;;;;;;;;;;;;;;;;;7370451;19;868;-69
2022/12/27 06:10:05;;;;;;;;;;;;;;;;;;7368697;19;1850;-70
2022/12/27 06:12:33;;;;;;;;;;;;;;;;;;7370845;19;809;-70
2022/12/27 06:15:01;;;;;;;;;;;;;;;;;;7370246;19;843;-70
2022/12/27 06:17:29;;;;;;;;;;;;;;;;;;7374343;19;1890;-71
2022/12/27 06:19:58;;;;;;;;;;;;;;;;;;7368873;19;1347;-71
2022/12/27 06:22:26;;;;;;;;;;;;;;;;;;7370592;19;775;-70
2022/12/27 06:24:54;;;;;;;;;;;;;;;;;;7370203;19;815;-71
2022/12/27 06:27:22;;;;;;;;;;;;;;;;;;7368441;19;843;-71
2022/12/27 06:29:50;;;;;;;;;;;;;;;;;;7367743;19;1841;-71
2022/12/27 06:32:18;;;;;;;;;;;;;;;;;;7369780;19;864;-71
2022/12/27 06:34:47;;;;;;;;;;;;;;;;;;7369644;19;811;-69
2022/12/27 06:37:15;;;;;;;;;;;;;;;;;;7367611;19;806;-70
2022/12/27 06:39:43;;;;;;;;;;;;;;;;;;7367255;19;1279;-71
2022/12/27 06:42:11;;;;;;;;;;;;;;;;;;7369050;19;870;-72
2022/12/27 06:44:39;;;;;;;;;;;;;;;;;;7368780;19;816;-72
2022/12/27 06:47:08;;;;;;;;;;;;;;;;;;7372226;19;1848;-71
2022/12/27 06:49:36;;;;;;;;;;;;;;;;;;7366986;19;1838;-72
2022/12/27 06:52:04;;;;;;;;;;;;;;;;;;7369593;19;1867;-70
2022/12/27 06:54:32;;;;;;;;;;;;;;;;;;7370390;19;858;-71
2022/12/27 06:57:00;;;;;;;;;;;;;;;;;;7368600;19;825;-70
2022/12/27 06:59:28;;;;;;;;;;;;;;;;;;7370361;19;1869;-70
2022/12/27 07:01:56;;;;;;;;;;;;;;;;;;7372557;19;1829;-70
2022/12/27 07:04:25;;;;;;;;;;;;;;;;;;7369150;19;862;-70
2022/12/27 07:06:53;;;;;;;;;;;;;;;;;;7369375;19;865;-69
2022/12/27 07:09:21;;;;;;;;;;;;;;;;;;7367475;19;1854;-68
2022/12/27 07:11:49;;;;;;;;;;;;;;;;;;7369102;19;748;-68
2022/12/27 07:14:17;;;;;;;;;;;;;;;;;;7369239;19;822;-68
2022/12/27 07:16:45;;;;;;;;;;;;;;;;;;7371724;19;1896;-68
2022/12/27 07:19:14;;;;;;;;;;;;;;;;;;7368534;19;1286;-68
2022/12/27 07:21:42;;;;;;;;;;;;;;;;;;7369350;19;787;-68
2022/12/27 07:24:10;;;;;;;;;;;;;;;;;;7368677;19;849;-68
2022/12/27 07:26:38;;;;;;;;;;;;;;;;;;7369061;19;798;-69
2022/12/27 07:29:07;;;;;;;;;;;;;;;;;;7367366;19;1819;-69
2022/12/27 07:31:35;;;;;;;;;;;;;;;;;;7368347;19;877;-68
2022/12/27 07:34:03;;;;;;;;;;;;;;;;;;7368654;19;857;-68
2022/12/27 07:36:31;;;;;;;;;;;;;;;;;;7369266;19;808;-69
2022/12/27 07:38:59;;;;;;;;;;;;;;;;;;7367479;19;1298;-69
2022/12/27 07:41:27;;;;;;;;;;;;;;;;;;7366852;19;799;-69
2022/12/27 07:43:56;;;;;;;;;;;;;;;;;;7369903;19;1648;-68
2022/12/27 07:46:24;;;;;;;;;;;;;;;;;;7370304;19;1879;-69
2022/12/27 07:48:52;;;;;;;;;;;;;;;;;;7365031;19;1311;-69
2022/12/27 07:51:20;;;;;;;;;;;;;;;;;;7366028;19;1829;-69
2022/12/27 07:53:48;;;;;;;;;;;;;;;;;;7369803;19;799;-69
2022/12/27 07:56:16;;;;;;;;;;;;;;;;;;7375124;19;877;-69
2022/12/27 07:58:44;;;;;;;;;;;;;;;;;;7375161;19;876;-69
2022/12/27 08:01:13;;;;;;;;;;;;;;;;;;7371221;19;1305;-68
2022/12/27 08:03:41;;;;;;;;;;;;;;;;;;7372587;19;840;-69
2022/12/27 08:06:09;;;;;;;;;;;;;;;;;;7373786;19;850;-69
2022/12/27 08:08:37;;;;;;;;;;;;;;;;;;7373452;19;872;-68
2022/12/27 08:11:05;;;;;;;;;;;;;;;;;;7370534;19;1839;-68
2022/12/27 08:13:33;;;;;;;;;;;;;;;;;;7372327;19;830;-69
2022/12/27 08:16:02;;;;;;;;;;;;;;;;;;7372548;19;1864;-68
2022/12/27 08:18:30;;;;;;;;;;;;;;;;;;7370929;19;1896;-69
2022/12/27 08:20:58;;;;;;;;;;;;;;;;;;7366592;19;1375;-69
2022/12/27 08:23:26;;;;;;;;;;;;;;;;;;7367993;19;787;-69
2022/12/27 08:25:55;;;;;;;;;;;;;;;;;;7371563;19;1204;-68
2022/12/27 08:28:23;;;;;;;;;;;;;;;;;;7370293;19;1244;-70
2022/12/27 08:30:51;;;;;;;;;;;;;;;;;;7368826;19;1822;-68
2022/12/27 08:33:19;;;;;;;;;;;;;;;;;;7372996;19;861;-69
2022/12/27 08:35:47;;;;;;;;;;;;;;;;;;7372581;19;902;-69
2022/12/27 08:38:17;;;;;;;;;;;;;;;;;;7375582;19;922;-68
2022/12/27 08:40:45;;;;;;;;;;;;;;;;;;7370257;19;1283;-68
2022/12/27 08:43:13;;;;;;;;;;;;;;;;;;7372443;19;854;-67
2022/12/27 08:45:42;;;;;;;;;;;;;;;;;;7374384;19;1876;-68
2022/12/27 08:48:10;;;;;;;;;;;;;;;;;;7369808;19;818;-69
2022/12/27 08:50:38;;;;;;;;;;;;;;;;;;7370099;19;1846;-69
2022/12/27 08:53:07;;;;;;;;;;;;;;;;;;7371108;19;775;-69
2022/12/27 08:55:35;;;;;;;;;;;;;;;;;;7372806;19;1050;-69
2022/12/27 08:58:03;;;;;;;;;;;;;;;;;;7370681;19;884;-69
2022/12/27 09:00:31;;;;;;;;;;;;;;;;;;7370936;19;1297;-68
2022/12/27 09:03:00;;;;;;;;;;;;;;;;;;7377852;19;827;-69
2022/12/27 09:05:28;;;;;;;;;;;;;;;;;;7376116;19;763;-69
2022/12/27 09:07:56;;;;;;;;;;;;;;;;;;7375944;19;909;-69
2022/12/27 09:10:24;;;;;;;;;;;;;;;;;;7375826;19;1842;-69
2022/12/27 09:12:53;;;;;;;;;;;;;;;;;;7374818;19;815;-69
2022/12/27 09:15:21;;;;;;;;;;;;;;;;;;7373063;19;1855;-69
2022/12/27 09:17:50;;;;;;;;;;;;;;;;;;7373280;19;869;-69
2022/12/27 09:20:18;;;;;;;;;;;;;;;;;;7372849;19;1271;-68
2022/12/27 09:22:46;;;;;;;;;;;;;;;;;;7374205;19;830;-69
2022/12/27 09:25:14;;;;;;;;;;;;;;;;;;7372652;19;787;-69
2022/12/27 09:27:42;;;;;;;;;;;;;;;;;;7372267;19;791;-69
2022/12/27 09:30:10;;;;;;;;;;;;;;;;;;7373148;19;1830;-69
2022/12/27 09:32:39;;;;;;;;;;;;;;;;;;7372788;19;797;-69
2022/12/27 09:35:07;;;;;;;;;;;;;;;;;;7372289;19;889;-69
2022/12/27 09:37:35;;;;;;;;;;;;;;;;;;7372291;19;900;-69
2022/12/27 09:40:03;;;;;;;;;;;;;;;;;;7371370;19;1274;-67
2022/12/27 09:42:31;;;;;;;;;;;;;;;;;;7373477;19;765;-68
2022/12/27 09:44:59;;;;;;;;;;;;;;;;;;7373263;19;818;-68
2022/12/27 09:47:27;;;;;;;;;;;;;;;;;;7377916;19;1921;-67
2022/12/27 09:49:56;;;;;;;;;;;;;;;;;;7370659;19;1843;-68
2022/12/27 09:52:24;;;;;;;;;;;;;;;;;;7372689;19;929;-68
2022/12/27 09:54:52;;;;;;;;;;;;;;;;;;7372731;19;772;-68
2022/12/27 09:57:20;;;;;;;;;;;;;;;;;;7371821;19;750;-67
2022/12/27 09:59:48;;;;;;;;;;;;;;;;;;7370952;19;1212;-67
2022/12/27 10:02:16;;;;;;;;;;;;;;;;;;7372515;19;827;-68
2022/12/27 10:04:45;;;;;;;;;;;;;;;;;;7372296;19;853;-68
2022/12/27 10:07:13;;;;;;;;;;;;;;;;;;7372152;19;859;-67
2022/12/27 10:09:41;;;;;;;;;;;;;;;;;;7370179;19;2260;-67
2022/12/27 10:12:09;;;;;;;;;;;;;;;;;;7372358;19;1619;-68
2022/12/27 10:14:37;;;;;;;;;;;;;;;;;;7372952;19;814;-68
2022/12/27 10:17:06;;;;;;;;;;;;;;;;;;7370676;19;819;-68
2022/12/27 10:19:34;;;;;;;;;;;;;;;;;;7370965;19;1869;-67
2022/12/27 10:22:02;;;;;;;;;;;;;;;;;;7371582;19;814;-68
2022/12/27 10:24:30;;;;;;;;;;;;;;;;;;7371327;19;834;-67
2022/12/27 10:26:58;;;;;;;;;;;;;;;;;;7371547;19;883;-68
2022/12/27 10:29:26;;;;;;;;;;;;;;;;;;7373787;19;1890;-67
2022/12/27 10:31:55;;;;;;;;;;;;;;;;;;7369113;19;1870;-68
2022/12/27 10:34:23;;;;;;;;;;;;;;;;;;7371180;19;847;-68
2022/12/27 10:36:51;;;;;;;;;;;;;;;;;;7371576;19;767;-68
2022/12/27 10:39:19;;;;;;;;;;;;;;;;;;7371309;19;1812;-67
2022/12/27 10:41:49;;;;;;;;;;;;;;;;;;7372975;19;1866;-68
2022/12/27 10:44:17;;;;;;;;;;;;;;;;;;7370933;19;810;-69
2022/12/27 10:46:45;;;;;;;;;;;;;;;;;;7370994;19;702;-67
2022/12/27 10:49:13;;;;;;;;;;;;;;;;;;7372414;19;1829;-66
2022/12/27 10:51:42;;;;;;;;;;;;;;;;;;7369217;19;1834;-67
2022/12/27 10:54:10;;;;;;;;;;;;;;;;;;7370982;19;830;-67
2022/12/27 10:56:40;;;;;;;;;;;;;;;;;;7369613;19;879;-68
2022/12/27 10:59:08;;;;;;;;;;;;;;;;;;7369664;19;1390;-68
2022/12/27 11:01:36;;;;;;;;;;;;;;;;;;7369963;19;885;-68
2022/12/27 11:04:04;;;;;;;;;;;;;;;;;;7371306;19;830;-67
2022/12/27 11:06:32;;;;;;;;;;;;;;;;;;7371374;19;798;-68
2022/12/27 11:09:01;;;;;;;;;;;;;;;;;;7371732;19;1987;-69
2022/12/27 11:11:29;;;;;;;;;;;;;;;;;;7369585;19;1846;-68
2022/12/27 11:13:57;;;;;;;;;;;;;;;;;;7370411;19;912;-69
2022/12/27 11:16:25;;;;;;;;;;;;;;;;;;7371100;19;874;-69
2022/12/27 11:18:53;;;;;;;;;;;;;;;;;;7369770;19;1349;-69
2022/12/27 11:21:21;;;;;;;;;;;;;;;;;;7369044;19;805;-67
2022/12/27 11:23:51;;;;;;;;;;;;;;;;;;7369260;19;719;-68
2022/12/27 11:26:19;;;;;;;;;;;;;;;;;;7369201;19;847;-68
2022/12/27 11:28:49;;;;;;;;;;;;;;;;;;7368715;19;881;-68
2022/12/27 11:31:17;;;;;;;;;;;;;;;;;;7366224;19;1842;-69
2022/12/27 11:33:46;;;;;;;;;;;;;;;;;;7370556;19;823;-69
2022/12/27 11:36:14;;;;;;;;;;;;;;;;;;7369269;19;807;-68
2022/12/27 11:38:42;;;;;;;;;;;;;;;;;;7369434;19;1587;-69
2022/12/27 11:41:10;;;;;;;;;;;;;;;;;;7366540;19;1337;-69
2022/12/27 11:43:38;;;;;;;;;;;;;;;;;;7369084;19;795;-69
2022/12/27 11:46:06;;;;;;;;;;;;;;;;;;7369283;19;792;-68
2022/12/27 11:48:35;;;;;;;;;;;;;;;;;;7370582;19;1657;-69
2022/12/27 11:51:03;;;;;;;;;;;;;;;;;;7366250;19;1841;-69
2022/12/27 11:53:31;;;;;;;;;;;;;;;;;;7368444;19;835;-69
2022/12/27 11:55:59;;;;;;;;;;;;;;;;;;7369210;19;818;-67
2022/12/27 11:58:27;;;;;;;;;;;;;;;;;;7370692;19;1907;-67
2022/12/27 12:00:55;;;;;;;;;;;;;;;;;;7367325;19;1274;-68
2022/12/27 12:03:23;;;;;;;;;;;;;;;;;;7371845;19;1370;-70
2022/12/27 12:05:52;;;;;;;;;;;;;;;;;;7367092;19;811;-68
2022/12/27 12:08:20;;;;;;;;;;;;;;;;;;7368647;19;1664;-69
2022/12/27 12:10:49;;;;;;;;;;;;;;;;;;7366545;19;1874;-69
2022/12/27 12:13:17;;;;;;;;;;;;;;;;;;7370659;19;1624;-70
2022/12/27 12:15:45;;;;;;;;;;;;;;;;;;7368875;19;817;-69
2022/12/27 12:18:13;;;;;;;;;;;;;;;;;;7366916;19;763;-70
2022/12/27 12:20:42;;;;;;;;;;;;;;;;;;7364974;19;1228;-68
2022/12/27 12:23:10;;;;;;;;;;;;;;;;;;7367999;19;886;-68
2022/12/27 12:25:39;;;;;;;;;;;;;;;;;;7368179;19;868;-69
2022/12/27 12:28:07;;;;;;;;;;;;;;;;;;7366971;19;818;-69
2022/12/27 12:30:35;;;;;;;;;;;;;;;;;;7364764;19;1845;-69
2022/12/27 12:33:03;;;;;;;;;;;;;;;;;;7368018;19;807;-70
2022/12/27 12:35:31;;;;;;;;;;;;;;;;;;7366364;19;728;-69
2022/12/27 12:38:00;;;;;;;;;;;;;;;;;;7370488;19;1877;-68
2022/12/27 12:40:28;;;;;;;;;;;;;;;;;;7366029;19;1282;-68
2022/12/27 12:42:56;;;;;;;;;;;;;;;;;;7368151;19;827;-67
2022/12/27 12:45:24;;;;;;;;;;;;;;;;;;7367989;19;823;-69
2022/12/27 12:47:52;;;;;;;;;;;;;;;;;;7366579;19;1050;-68
2022/12/27 12:50:20;;;;;;;;;;;;;;;;;;7366919;19;1282;-69
2022/12/27 12:52:48;;;;;;;;;;;;;;;;;;7364727;19;1838;-67
2022/12/27 12:55:17;;;;;;;;;;;;;;;;;;7366043;19;726;-68
2022/12/27 12:57:45;;;;;;;;;;;;;;;;;;7367363;19;798;-69
2022/12/27 13:00:14;;;;;;;;;;;;;;;;;;7365232;19;1298;-70
2022/12/27 13:02:42;;;;;;;;;;;;;;;;;;7366976;19;795;-68
2022/12/27 13:05:10;;;;;;;;;;;;;;;;;;7366218;19;807;-69
2022/12/27 13:07:40;;;;;;;;;;;;;;;;;;7366364;19;870;-69
2022/12/27 13:10:08;;;;;;;;;;;;;;;;;;7364622;19;1365;-69
2022/12/27 13:12:36;;;;;;;;;;;;;;;;;;7364283;19;1834;-68
2022/12/27 13:15:04;;;;;;;;;;;;;;;;;;7366651;19;784;-69
2022/12/27 13:17:32;;;;;;;;;;;;;;;;;;7366490;19;841;-70
2022/12/27 13:20:01;;;;;;;;;;;;;;;;;;7364978;19;1266;-70
2022/12/27 13:22:29;;;;;;;;;;;;;;;;;;7366268;19;857;-68
2022/12/27 13:24:57;;;;;;;;;;;;;;;;;;7366343;19;871;-68
2022/12/27 13:27:25;;;;;;;;;;;;;;;;;;7366394;19;799;-68
2022/12/27 13:29:53;;;;;;;;;;;;;;;;;;7364561;19;1282;-68
2022/12/27 13:32:22;;;;;;;;;;;;;;;;;;7363341;19;1838;-68
2022/12/27 13:34:50;;;;;;;;;;;;;;;;;;7365683;19;747;-69
2022/12/27 13:37:18;;;;;;;;;;;;;;;;;;7364911;19;2115;-68
2022/12/27 13:39:46;;;;;;;;;;;;;;;;;;7363648;19;1271;-68
2022/12/27 13:42:14;;;;;;;;;;;;;;;;;;7365191;19;796;-68
2022/12/27 13:44:43;;;;;;;;;;;;;;;;;;7366105;19;869;-68
2022/12/27 13:47:11;;;;;;;;;;;;;;;;;;7371324;19;851;-68
2022/12/27 13:49:39;;;;;;;;;;;;;;;;;;7372050;19;1286;-68
2022/12/27 13:52:07;;;;;;;;;;;;;;;;;;7370694;19;1844;-68
2022/12/27 13:54:35;;;;;;;;;;;;;;;;;;7372426;19;811;-68
2022/12/27 13:57:03;;;;;;;;;;;;;;;;;;7371381;19;868;-68
2022/12/27 13:59:31;;;;;;;;;;;;;;;;;;7370905;19;1243;-68
2022/12/27 14:02:00;;;;;;;;;;;;;;;;;;7371705;19;819;-69
2022/12/27 14:04:28;;;;;;;;;;;;;;;;;;7371719;19;811;-68
2022/12/27 14:06:56;;;;;;;;;;;;;;;;;;7371838;19;938;-68
2022/12/27 14:09:24;;;;;;;;;;;;;;;;;;7373693;19;2268;-67
2022/12/27 14:11:52;;;;;;;;;;;;;;;;;;7370743;19;1841;-68
2022/12/27 14:14:20;;;;;;;;;;;;;;;;;;7371138;19;911;-68
2022/12/27 14:16:49;;;;;;;;;;;;;;;;;;7370334;19;795;-67
2022/12/27 14:19:17;;;;;;;;;;;;;;;;;;7370624;19;1337;-68
2022/12/27 14:21:45;;;;;;;;;;;;;;;;;;7371402;19;1946;-67
2022/12/27 14:24:13;;;;;;;;;;;;;;;;;;7371321;19;940;-67
2022/12/27 14:26:42;;;;;;;;;;;;;;;;;;7370918;19;771;-68
2022/12/27 14:29:12;;;;;;;;;;;;;;;;;;7376581;19;1410;-68
2022/12/27 14:31:43;;;;;;;;;;;;;;;;;;7376383;19;1830;-67
2022/12/27 14:34:15;;;;;;;;;;;;;;;;;;7377286;19;804;-68
2022/12/27 14:36:45;;;;;;;;;;;;;;;;;;7377037;19;667;-68
2022/12/27 14:39:14;;;;;;;;;;;;;;;;;;7374815;19;1930;-68
2022/12/27 14:41:42;;;;;;;;;;;;;;;;;;7369905;19;862;-69
2022/12/27 14:44:11;;;;;;;;;;;;;;;;;;7369375;19;803;-67
2022/12/27 14:46:39;;;;;;;;;;;;;;;;;;7370236;19;811;-67
2022/12/27 14:49:07;;;;;;;;;;;;;;;;;;7368240;19;1329;-68
2022/12/27 14:51:36;;;;;;;;;;;;;;;;;;7369307;19;1864;-67
2022/12/27 14:54:04;;;;;;;;;;;;;;;;;;7370234;19;829;-67
2022/12/27 14:56:32;;;;;;;;;;;;;;;;;;7369626;19;775;-67
2022/12/27 14:59:00;;;;;;;;;;;;;;;;;;7367019;19;1286;-69
2022/12/27 15:01:29;;;;;;;;;;;;;;;;;;7370512;19;1899;-67
2022/12/27 15:03:58;;;;;;;;;;;;;;;;;;7369060;19;787;-67
2022/12/27 15:06:27;;;;;;;;;;;;;;;;;;7373119;19;1838;-68
2022/12/27 15:08:55;;;;;;;;;;;;;;;;;;7368771;19;1275;-69
2022/12/27 15:11:23;;;;;;;;;;;;;;;;;;7368840;19;1881;-68
2022/12/27 15:13:51;;;;;;;;;;;;;;;;;;7370375;19;838;-67
2022/12/27 15:16:19;;;;;;;;;;;;;;;;;;7369302;19;1112;-67
2022/12/27 15:18:47;;;;;;;;;;;;;;;;;;7368958;19;807;-68
2022/12/27 15:21:15;;;;;;;;;;;;;;;;;;7366576;19;1240;-68
2022/12/27 15:23:44;;;;;;;;;;;;;;;;;;7370267;19;866;-68
2022/12/27 15:26:12;;;;;;;;;;;;;;;;;;7368435;19;850;-68
2022/12/27 15:28:40;;;;;;;;;;;;;;;;;;7368359;19;811;-67
2022/12/27 15:31:09;;;;;;;;;;;;;;;;;;7366323;19;1271;-68
2022/12/27 15:33:37;;;;;;;;;;;;;;;;;;7366266;19;1859;-67
2022/12/27 15:36:05;;;;;;;;;;;;;;;;;;7370205;19;1522;-68
2022/12/27 15:38:33;;;;;;;;;;;;;;;;;;7367882;19;870;-68
2022/12/27 15:41:01;;;;;;;;;;;;;;;;;;7365562;19;1275;-68
2022/12/27 15:43:30;;;;;;;;;;;;;;;;;;7368596;19;791;-69
2022/12/27 15:45:58;;;;;;;;;;;;;;;;;;7367721;19;808;-68
2022/12/27 15:48:26;;;;;;;;;;;;;;;;;;7368001;19;904;-68
2022/12/27 15:50:54;;;;;;;;;;;;;;;;;;7365754;19;1287;-68
2022/12/27 15:53:22;;;;;;;;;;;;;;;;;;7366451;19;1841;-68
2022/12/27 15:55:50;;;;;;;;;;;;;;;;;;7368428;19;820;-68
2022/12/27 15:58:18;;;;;;;;;;;;;;;;;;7367462;19;832;-68
2022/12/27 16:00:47;;;;;;;;;;;;;;;;;;7365712;19;1330;-69
2022/12/27 16:03:15;;;;;;;;;;;;;;;;;;7365857;19;879;-67
2022/12/27 16:05:43;;;;;;;;;;;;;;;;;;7369154;19;1891;-67
2022/12/27 16:08:11;;;;;;;;;;;;;;;;;;7366244;19;827;-68
2022/12/27 16:10:39;;;;;;;;;;;;;;;;;;7362156;19;1369;-67
2022/12/27 16:13:07;;;;;;;;;;;;;;;;;;7364554;19;1806;-67
2022/12/27 16:15:36;;;;;;;;;;;;;;;;;;7366514;19;813;-66
2022/12/27 16:18:04;;;;;;;;;;;;;;;;;;7366049;19;806;-67
2022/12/27 16:20:32;;;;;;;;;;;;;;;;;;7365612;19;1326;-68
2022/12/27 16:23:04;;;;;;;;;;;;;;;;;;7364347;19;1055;-68
2022/12/27 16:25:32;;;;;;;;;;;;;;;;;;7367011;19;839;-68
2022/12/27 16:28:00;;;;;;;;;;;;;;;;;;7366422;19;806;-69
2022/12/27 16:30:28;;;;;;;;;;;;;;;;;;7365332;19;1321;-68
2022/12/27 16:32:56;;;;;;;;;;;;;;;;;;7364448;19;1838;-68
2022/12/27 16:35:24;;;;;;;;;;;;;;;;;;7366200;19;1757;-68
2022/12/27 16:37:53;;;;;;;;;;;;;;;;;;7365838;19;732;-68
2022/12/27 16:40:21;;;;;;;;;;;;;;;;;;7364846;19;1263;-68
2022/12/27 16:42:49;;;;;;;;;;;;;;;;;;7366559;19;862;-68
2022/12/27 16:45:17;;;;;;;;;;;;;;;;;;7366318;19;759;-67
2022/12/27 16:47:45;;;;;;;;;;;;;;;;;;7369067;19;1905;-67
2022/12/27 16:50:13;;;;;;;;;;;;;;;;;;7364231;19;1337;-67
2022/12/27 16:52:42;;;;;;;;;;;;;;;;;;7362969;19;1950;-67
2022/12/27 16:55:10;;;;;;;;;;;;;;;;;;7366736;19;831;-68
2022/12/27 16:57:38;;;;;;;;;;;;;;;;;;7365685;19;737;-67
2022/12/27 17:00:06;;;;;;;;;;;;;;;;;;7381388;19;1610;-67
2022/12/27 17:02:34;;;;;;;;;;;;;;;;;;7381208;19;1565;-68
2022/12/27 17:05:03;;;;;;;;;;;;;;;;;;7374308;19;1614;-68
2022/12/27 17:07:31;;;;;;;;;;;;;;;;;;7369472;19;1657;-70
2022/12/27 17:09:59;;;;;;;;;;;;;;;;;;7369042;19;1366;-68
2022/12/27 17:12:27;;;;;;;;;;;;;;;;;;7370403;19;1834;-68
2022/12/27 17:14:56;;;;;;;;;;;;;;;;;;7372550;19;832;-68
2022/12/27 17:17:24;;;;;;;;;;;;;;;;;;7366347;19;779;-67
2022/12/27 17:19:52;;;;;;;;;;;;;;;;;;7363771;19;1204;-67
2022/12/27 17:22:20;;;;;;;;;;;;;;;;;;7370624;19;838;-67
2022/12/27 17:24:49;;;;;;;;;;;;;;;;;;7371162;19;947;-67
2022/12/27 17:27:18;;;;;;;;;;;;;;;;;;7371816;19;811;-68
2022/12/27 17:29:46;;;;;;;;;;;;;;;;;;7370221;19;1376;-68
2022/12/27 17:32:14;;;;;;;;;;;;;;;;;;7369523;19;1839;-67
2022/12/27 17:34:42;;;;;;;;;;;;;;;;;;7369747;19;1967;-68
2022/12/27 17:37:11;;;;;;;;;;;;;;;;;;7371189;19;838;-68
2022/12/27 17:39:39;;;;;;;;;;;;;;;;;;7370352;19;1286;-68
2022/12/27 17:44:48;;;;;;;;;;;;;;;;;;7372020;19;767;-68
2022/12/27 17:47:16;;;;;;;;;;;;;;;;;;7371976;19;820;-68
2022/12/27 17:49:44;;;;;;;;;;;;;;;;;;7369746;19;1281;-67
2022/12/27 18:00:14;;;;;;;;;;;;;;;;;;7369155;19;1274;-68
2022/12/27 18:02:42;;;;;;;;;;;;;;;;;;7369879;19;834;-68
2022/12/27 18:05:11;;;;;;;;;;;;;;;;;;7372662;19;1852;-68
2022/12/27 18:07:39;;;;;;;;;;;;;;;;;;7371985;19;875;-69
2022/12/27 18:10:07;;;;;;;;;;;;;;;;;;7369728;19;1274;-69
2022/12/27 18:12:35;;;;;;;;;;;;;;;;;;7372390;19;1849;-68
2022/12/27 18:15:03;;;;;;;;;;;;;;;;;;7371427;19;811;-68
2022/12/27 18:17:31;;;;;;;;;;;;;;;;;;7370228;19;750;-69
2022/12/27 18:20:00;;;;;;;;;;;;;;;;;;7369104;19;1335;-68
2022/12/27 18:22:28;;;;;;;;;;;;;;;;;;7372367;19;1751;-68
2022/12/27 18:24:56;;;;;;;;;;;;;;;;;;7371516;19;792;-68
2022/12/27 18:27:24;;;;;;;;;;;;;;;;;;7369560;19;842;-68
2022/12/27 18:29:52;;;;;;;;;;;;;;;;;;7368742;19;1289;-68
2022/12/27 18:32:20;;;;;;;;;;;;;;;;;;7367987;19;1846;-68
2022/12/27 18:34:48;;;;;;;;;;;;;;;;;;7371857;19;1836;-67
2022/12/27 18:37:17;;;;;;;;;;;;;;;;;;7371470;19;876;-68
2022/12/27 18:39:45;;;;;;;;;;;;;;;;;;7368655;19;1270;-68
2022/12/27 18:42:13;;;;;;;;;;;;;;;;;;7368137;19;866;-68
2022/12/27 18:44:41;;;;;;;;;;;;;;;;;;7368507;19;823;-68
2022/12/27 18:47:09;;;;;;;;;;;;;;;;;;7369660;19;866;-69
2022/12/27 18:49:37;;;;;;;;;;;;;;;;;;7370331;19;1879;-69
2022/12/27 18:52:06;;;;;;;;;;;;;;;;;;7370604;19;854;-69
2022/12/27 18:54:34;;;;;;;;;;;;;;;;;;7366763;19;1864;-71
2022/12/27 18:57:02;;;;;;;;;;;;;;;;;;7369404;19;780;-69
2022/12/27 18:59:30;;;;;;;;;;;;;;;;;;7368291;19;1271;-68
2022/12/27 19:01:58;;;;;;;;;;;;;;;;;;7369999;19;867;-67
2022/12/27 19:04:26;;;;;;;;;;;;;;;;;;7369657;19;1833;-67
2022/12/27 19:06:54;;;;;;;;;;;;;;;;;;7369654;19;851;-69
2022/12/27 19:09:22;;;;;;;;;;;;;;;;;;7367991;19;1256;-68
2022/12/27 19:11:51;;;;;;;;;;;;;;;;;;7371879;19;1454;-68
2022/12/27 19:14:19;;;;;;;;;;;;;;;;;;7369904;19;1845;-68